Startpagina
METAR-TAF:

METAR-TAF

Vliegvelden :

Toussus-le-Noble, Frankrijk

breedte: 48-46N, lengte: 002-06E, hoogte: 164 m

Actueel weer

Dit bericht is 22 minuten geleden gemaakt, om 20:30 UTC
Wind 7 kt uit het oostnoordoosten, variërend tussen het noordnoordoosten en het oostzuidoosten
Temperatuur 23°C
Vochtigheid 53%
Druk 1015 hPa
Zicht 10 km of meer
geen wolken onder 1500 m en geen cumulonimbus

METAR: LFPN 182030Z AUTO 06007KT 020V110 CAVOK 23/13 Q1015 NOSIG

Tijdstip: 22:52 (20:52 UTC)

Verwachting

Dit bericht is 3 uur en het 52 minuten geleden gemaakt, om 17:00 UTC
Verwachting geldig van 18 om 18 UTC tot 19 om 03 UTC
Wind 6 kt uit het oosten
Zicht 10 km of meer
geen wolken onder 1500 m en geen cumulonimbus

TAF: LFPN 181700Z 1818/1903 08006KT CAVOK

Waarnemingen en weersverwachtingen van meer dan 4000 vliegvelden (METAR en TAF).

De beschikbare stations zijn de gele en rode punten op de kaart.

Ga met uw muis naar het station om de naam te zien.

Klik dan om waarnemingen en weersverwachtingen te zien.

kaart wijzigen: klik op de groene knoppen met een zwart kruis om in te zoomen, op de groene knop met een streepje om uit te zoomen of op de groene pijlen voor aangrenzende kaarten.


METAR-TAF: